Phillips, ME (04966)

12:00 AM EDT on July 28, 2016 (GMT -0400)
Toothaker Pond | | Change Station

Elev 820 ft 44.87 °N, 70.40 °W | Updated 2 minutes ago

Clear
Clear
66.0 °F
Feels Like 66.0 °F
N
0.0
Wind Variable Wind from SSE

Today
High -- | Low -- °F
--% Chance of Precip.
Yesterday
High -- | Low -- °F
Precip. -- in
Pressure 29.96 in
Visibility 10.0 miles
Clouds Clear
Dew Point 63 °F
Humidity 89%
Rainfall in
Snow Depth Not available.
5:23 AM 8:11 PM
Last Quarter, 36% visible
METAR KWVL 280356Z AUTO 21004KT 10SM CLR 20/17 A2986 RMK AO2 SLP143 T02000167
Pressure 29.96 in
Visibility 10.0 miles
Clouds Clear
Dew Point 63 °F
Humidity 89%
Rainfall in
Snow Depth Not available.
5:23 AM 8:11 PM
Last Quarter, 36% visible
METAR KWVL 280356Z AUTO 21004KT 10SM CLR 20/17 A2986 RMK AO2 SLP143 T02000167

10-Day Weather Forecast

Almanac

Astronomy

Jul. 28, 2016 Rise Set
Actual Time
Civil Twilight
Nautical Twilight
Astronomical Twilight
Moon
Length of Visible Light
Length of Day
Tomorrow will be .
, % of the Moon is Illuminated

Today's Extremes

State Highs State Lows

Community

WunderPhotos

Upload Photos

1,928,037 photos uploaded!

WunderBlog® & News

Nearby

Air Quality

  Air Quality AQ Index Pollutant
Not available.

Snow Depth

Station Depth Elevation

Earthquake Activity

City Distance Mag. Time & Date
Minimum magnitude displayed is 2.5.

Coastal Water Temperatures

Place Temperature

Stations

Nearby Weather Stations

Station Location Temp. Windchill Dew Point Humidity Wind Precip. Elev Updated Type
                   

Watches & Warnings

There are currently no watches in effect.